Requena, Spain
Current Conditions -  °F | °C
As of 3:00 PM on Saturday 20 Dec 2014 (Local Time) from LEVC Reporting Station
Few Clouds Few Clouds  
Wind Chill: 61°   Ceiling: Unl
Heat Index: 61°   Visibility: 6mi
Dew Point: 52°   Wind: 5mph
Humidity: 72%   Direction: 120°ESE
Pressure: 30.42"   Gusts: NA
Location:  39.49°N, 1.1°W
Report Text: LEVC 201400Z 12004KT 070V150 9999 FEW025 16/11 Q1030 NOSIG
Loading
Personal Weather Stations






























Interactive Weather Map New forecast layout! Learn more

10-Day Weather Forecast

Advertisements
Track Severe Weather on mobile